createdAt,value
2019-04-04T00:00:55.617Z,7.80
2019-04-04T00:03:27.256Z,10.25
2019-04-04T00:05:59.099Z,10.25
2019-04-04T00:08:31.580Z,8.33
2019-04-04T00:11:05.775Z,8.55
2019-04-04T00:13:36.953Z,7.87
2019-04-04T00:16:07.976Z,6.90
2019-04-04T00:18:39.862Z,8.20
2019-04-04T00:21:11.906Z,8.50
2019-04-04T00:23:43.652Z,8.50
2019-04-04T00:26:16.126Z,7.97
2019-04-04T00:28:47.908Z,7.92
2019-04-04T00:31:19.598Z,8.05
2019-04-04T00:33:50.975Z,8.05
2019-04-04T00:36:23.158Z,7.42
2019-04-04T00:38:55.219Z,8.33
2019-04-04T00:41:27.128Z,9.58
2019-04-04T00:43:59.099Z,9.08
2019-04-04T00:46:30.899Z,9.05
2019-04-04T00:49:04.829Z,9.60
2019-04-04T00:51:38.687Z,9.03
2019-04-04T00:54:10.079Z,9.10
2019-04-04T00:56:41.690Z,9.50
2019-04-04T00:59:13.036Z,9.95
2019-04-04T01:01:44.580Z,10.75
2019-04-04T01:04:16.566Z,10.40
2019-04-04T01:06:48.337Z,10.25
2019-04-04T01:09:19.593Z,11.20
2019-04-04T01:11:51.874Z,10.43
2019-04-04T01:14:23.473Z,8.85
2019-04-04T01:16:55.788Z,9.25
2019-04-04T01:19:28.585Z,10.70
2019-04-04T01:22:00.243Z,9.70
2019-04-04T01:24:31.951Z,9.23
2019-04-04T01:27:04.188Z,11.18
2019-04-04T01:29:37.143Z,10.38
2019-04-04T01:32:08.704Z,10.58
2019-04-04T01:34:40.047Z,9.70
2019-04-04T01:37:12.230Z,10.13
2019-04-04T01:39:43.906Z,9.98
2019-04-04T01:42:16.071Z,11.30
2019-04-04T01:44:47.894Z,11.80
2019-04-04T01:47:19.786Z,9.58
2019-04-04T01:49:51.878Z,10.55
2019-04-04T01:52:27.838Z,10.30
2019-04-04T01:54:57.681Z,10.10
2019-04-04T01:57:29.257Z,11.33
2019-04-04T02:00:01.547Z,9.40
2019-04-04T02:02:33.100Z,11.03
2019-04-04T02:05:04.740Z,10.28
2019-04-04T02:07:36.278Z,9.70
2019-04-04T02:10:07.954Z,10.88
2019-04-04T02:12:40.105Z,9.80
2019-04-04T02:15:14.353Z,10.35
2019-04-04T02:17:46.120Z,9.33
2019-04-04T02:20:18.063Z,10.03
2019-04-04T02:22:49.574Z,9.98
2019-04-04T02:25:22.611Z,11.75
2019-04-04T02:27:53.873Z,10.13
2019-04-04T02:30:25.490Z,11.15
2019-04-04T02:33:00.413Z,12.60
2019-04-04T02:35:30.962Z,10.45
2019-04-04T02:38:02.309Z,10.80
2019-04-04T02:40:33.837Z,11.43
2019-04-04T02:43:05.197Z,10.28
2019-04-04T02:45:38.841Z,11.43
2019-04-04T02:48:09.777Z,11.75
2019-04-04T02:50:41.143Z,10.60
2019-04-04T02:53:13.549Z,11.30
2019-04-04T02:55:45.391Z,10.63
2019-04-04T02:58:17.203Z,11.33
2019-04-04T03:00:48.284Z,12.50
2019-04-04T03:03:19.266Z,10.75
2019-04-04T03:05:51.983Z,14.35
2019-04-04T03:08:23.702Z,11.83
2019-04-04T03:10:55.575Z,10.72
2019-04-04T03:13:31.136Z,10.38
2019-04-04T03:16:00.763Z,9.15
2019-04-04T03:18:34.822Z,10.50
2019-04-04T03:21:06.170Z,9.80
2019-04-04T03:23:37.849Z,12.60
2019-04-04T03:26:09.424Z,10.45
2019-04-04T03:28:41.367Z,11.05
2019-04-04T03:31:13.309Z,13.13
2019-04-04T03:33:45.408Z,10.23
2019-04-04T03:36:17.279Z,10.70
2019-04-04T03:38:49.321Z,11.33
2019-04-04T03:41:21.818Z,10.85
2019-04-04T03:43:53.191Z,11.78
2019-04-04T03:46:25.240Z,12.68
2019-04-04T03:48:57.161Z,11.25
2019-04-04T03:51:29.096Z,10.15
2019-04-04T03:54:02.923Z,11.73
2019-04-04T03:56:39.174Z,12.18
2019-04-04T03:59:07.562Z,10.58
2019-04-04T04:01:38.611Z,11.83
2019-04-04T04:04:10.152Z,10.80
2019-04-04T04:06:42.370Z,12.40
2019-04-04T04:09:16.077Z,13.68
2019-04-04T04:11:47.350Z,13.32
2019-04-04T04:14:21.672Z,12.37
2019-04-04T04:16:52.562Z,14.68
2019-04-04T04:19:24.748Z,13.35
2019-04-04T04:21:57.328Z,14.33
2019-04-04T04:24:30.417Z,14.58
2019-04-04T04:27:02.160Z,14.13
2019-04-04T04:29:34.987Z,12.50
2019-04-04T04:32:07.257Z,12.47
2019-04-04T04:34:38.870Z,14.13
2019-04-04T04:37:10.652Z,12.73
2019-04-04T04:39:42.011Z,15.38
2019-04-04T04:42:13.867Z,13.98
2019-04-04T04:44:46.105Z,12.00
2019-04-04T04:47:17.771Z,11.93
2019-04-04T04:49:48.934Z,13.03
2019-04-04T04:52:20.571Z,11.83
2019-04-04T04:54:52.333Z,12.85
2019-04-04T04:57:29.936Z,12.47
2019-04-04T04:59:58.018Z,13.35
2019-04-04T05:02:30.102Z,13.08
2019-04-04T05:05:01.945Z,13.80
2019-04-04T05:07:33.890Z,13.08
2019-04-04T05:10:06.253Z,13.15
2019-04-04T05:12:37.910Z,12.88
2019-04-04T05:15:10.015Z,12.25
2019-04-04T05:17:42.048Z,12.23
2019-04-04T05:20:14.208Z,13.40
2019-04-04T05:22:45.967Z,11.43
2019-04-04T05:25:17.713Z,11.20
2019-04-04T05:27:48.706Z,11.35
2019-04-04T05:30:21.450Z,11.35
2019-04-04T05:33:00.248Z,10.78
2019-04-04T05:35:33.478Z,10.65
2019-04-04T05:38:07.731Z,10.55
2019-04-04T05:40:38.885Z,8.58
2019-04-04T05:43:10.995Z,8.65
2019-04-04T05:45:44.957Z,9.08
2019-04-04T05:48:16.116Z,9.40
2019-04-04T05:50:47.446Z,9.95
2019-04-04T05:53:21.398Z,11.08
2019-04-04T05:55:52.208Z,9.55
2019-04-04T05:58:23.204Z,10.93
2019-04-04T06:00:57.727Z,9.85
2019-04-04T06:03:28.831Z,10.60
2019-04-04T06:06:01.403Z,9.55
2019-04-04T06:08:33.594Z,10.50
2019-04-04T06:11:05.747Z,10.40
2019-04-04T06:13:37.719Z,9.60
2019-04-04T06:16:09.172Z,8.65
2019-04-04T06:18:42.856Z,7.53
2019-04-04T06:21:13.995Z,8.85
2019-04-04T06:23:45.860Z,6.65
2019-04-04T06:26:17.538Z,8.70
2019-04-04T06:28:49.881Z,7.25
2019-04-04T06:31:21.751Z,6.60
2019-04-04T06:33:54.525Z,6.72
2019-04-04T06:36:25.826Z,7.37
2019-04-04T06:38:57.082Z,7.33
2019-04-04T06:41:32.017Z,7.67
2019-04-04T06:44:02.550Z,6.62
2019-04-04T06:46:34.125Z,5.85
2019-04-04T06:49:06.712Z,5.15
2019-04-04T06:51:38.054Z,8.25
2019-04-04T06:54:09.402Z,6.00
2019-04-04T06:56:41.050Z,2.50
2019-04-04T06:59:12.874Z,3.17
2019-04-04T07:01:44.662Z,2.80
2019-04-04T07:04:17.360Z,4.67
2019-04-04T07:06:49.300Z,3.30
2019-04-04T07:09:22.092Z,3.60
2019-04-04T07:11:53.657Z,2.83
2019-04-04T07:14:25.279Z,2.93
2019-04-04T07:16:57.154Z,2.90
2019-04-04T07:19:29.280Z,3.30
2019-04-04T07:22:01.109Z,3.40
2019-04-04T07:24:33.475Z,3.43
2019-04-04T07:27:04.948Z,4.50
2019-04-04T07:29:36.379Z,5.17
2019-04-04T07:32:09.392Z,4.53
2019-04-04T07:34:41.130Z,4.60
2019-04-04T07:37:12.351Z,4.07
2019-04-04T07:39:43.503Z,4.83
2019-04-04T07:42:16.249Z,5.30
2019-04-04T07:44:48.074Z,5.50
2019-04-04T07:47:19.433Z,4.63
2019-04-04T07:49:50.712Z,4.47
2019-04-04T07:52:22.372Z,5.03
2019-04-04T07:54:54.280Z,5.30
2019-04-04T07:57:26.410Z,5.13
2019-04-04T07:59:58.090Z,4.90
2019-04-04T08:02:30.086Z,5.77
2019-04-04T08:05:01.382Z,5.50
2019-04-04T08:07:32.983Z,6.27
2019-04-04T08:10:04.701Z,5.37
2019-04-04T08:12:36.319Z,4.97
2019-04-04T08:15:09.302Z,6.33
2019-04-04T08:17:41.287Z,6.07
2019-04-04T08:20:13.755Z,5.93
2019-04-04T08:22:45.532Z,6.37
2019-04-04T08:25:17.272Z,7.43
2019-04-04T08:27:48.253Z,7.23
2019-04-04T08:30:19.988Z,9.23
2019-04-04T08:32:52.204Z,9.60
2019-04-04T08:35:23.780Z,10.50
2019-04-04T08:37:55.722Z,9.47
2019-04-04T08:40:26.720Z,9.87
2019-04-04T08:42:58.474Z,14.23
2019-04-04T08:45:30.633Z,11.27
2019-04-04T08:48:02.259Z,11.73
2019-04-04T08:50:34.047Z,11.87
2019-04-04T08:53:05.062Z,12.87
2019-04-04T08:55:36.946Z,13.73
2019-04-04T08:58:10.138Z,15.67
2019-04-04T09:00:41.705Z,15.43
2019-04-04T09:03:13.338Z,14.53
2019-04-04T09:05:44.685Z,14.80
2019-04-04T09:08:15.962Z,17.13
2019-04-04T09:10:47.341Z,14.73
2019-04-04T09:13:18.952Z,14.83
2019-04-04T09:15:50.687Z,15.33
2019-04-04T09:18:22.027Z,15.93
2019-04-04T09:20:53.296Z,15.87
2019-04-04T09:23:24.400Z,15.77
2019-04-04T09:26:05.459Z,15.63
2019-04-04T09:28:29.142Z,15.60
2019-04-04T09:31:02.246Z,14.93
2019-04-04T09:33:34.558Z,14.33
2019-04-04T09:36:06.491Z,14.63
2019-04-04T09:38:39.168Z,15.43
2019-04-04T09:41:11.209Z,16.50
2019-04-04T09:43:42.206Z,16.73
2019-04-04T09:46:14.107Z,17.23
2019-04-04T09:48:45.789Z,16.60
2019-04-04T09:51:17.561Z,15.87
2019-04-04T09:53:53.167Z,16.83
2019-04-04T09:56:23.145Z,17.30
2019-04-04T09:58:55.219Z,20.67
2019-04-04T10:01:26.706Z,15.70
2019-04-04T10:03:58.380Z,19.23
2019-04-04T10:06:30.303Z,20.53
2019-04-04T10:09:14.777Z,18.07
2019-04-04T10:11:35.087Z,20.50
2019-04-04T10:14:06.431Z,19.77
2019-04-04T10:16:38.646Z,21.13
2019-04-04T10:19:10.202Z,21.43
2019-04-04T10:21:41.833Z,21.77
2019-04-04T10:24:13.711Z,20.00
2019-04-04T10:26:45.405Z,20.03
2019-04-04T10:29:17.203Z,21.17
2019-04-04T10:31:49.147Z,22.93
2019-04-04T10:34:20.794Z,22.03
2019-04-04T10:36:52.165Z,21.43
2019-04-04T10:39:29.377Z,19.87
2019-04-04T10:41:56.892Z,21.53
2019-04-04T10:44:28.822Z,25.20
2019-04-04T10:47:00.484Z,23.43
2019-04-04T10:49:32.882Z,21.37
2019-04-04T10:52:04.083Z,21.63
2019-04-04T10:54:35.366Z,22.87
2019-04-04T10:57:06.713Z,23.97
2019-04-04T10:59:38.172Z,23.40
2019-04-04T11:02:09.491Z,24.57
2019-04-04T11:04:41.026Z,26.70
2019-04-04T11:07:12.773Z,25.73
2019-04-04T11:09:44.032Z,25.77
2019-04-04T11:12:16.864Z,27.70
2019-04-04T11:14:48.711Z,27.93
2019-04-04T11:17:20.140Z,28.70
2019-04-04T11:19:52.015Z,27.63
2019-04-04T11:22:24.786Z,29.47
2019-04-04T11:24:56.162Z,32.07
2019-04-04T11:27:28.240Z,30.83
2019-04-04T11:30:00.516Z,32.10
2019-04-04T11:32:32.744Z,31.30
2019-04-04T11:35:05.644Z,29.20
2019-04-04T11:37:37.358Z,27.83
2019-04-04T11:40:09.579Z,32.70
2019-04-04T11:42:41.075Z,33.07
2019-04-04T11:45:12.677Z,29.97
2019-04-04T11:47:45.016Z,30.27
2019-04-04T11:50:16.911Z,28.20
2019-04-04T11:52:48.531Z,32.07
2019-04-04T11:55:19.896Z,31.47
2019-04-04T11:57:52.071Z,28.20
2019-04-04T12:00:30.912Z,29.47
2019-04-04T12:03:02.336Z,26.60
2019-04-04T12:05:33.687Z,32.97
2019-04-04T12:08:05.206Z,29.53
2019-04-04T12:10:36.332Z,29.43
2019-04-04T12:13:07.390Z,29.23
2019-04-04T12:15:39.216Z,26.60
2019-04-04T12:18:10.796Z,26.50
2019-04-04T12:20:43.526Z,26.27
2019-04-04T12:23:15.026Z,27.43
2019-04-04T12:25:46.984Z,23.90
2019-04-04T12:28:18.579Z,26.47
2019-04-04T12:30:49.915Z,24.33
2019-04-04T12:33:21.781Z,26.10
2019-04-04T12:35:53.644Z,24.43
2019-04-04T12:38:24.984Z,24.27
2019-04-04T12:40:56.289Z,23.67
2019-04-04T12:43:27.828Z,23.40
2019-04-04T12:46:00.387Z,23.93
2019-04-04T12:48:32.259Z,22.13
2019-04-04T12:51:03.359Z,23.77
2019-04-04T12:53:35.331Z,38.73
2019-04-04T12:56:07.080Z,21.23
2019-04-04T12:58:39.132Z,23.03
2019-04-04T13:01:10.786Z,26.23
2019-04-04T13:03:42.358Z,23.90
2019-04-04T13:06:14.100Z,24.93
2019-04-04T13:08:46.813Z,24.27
2019-04-04T13:11:18.551Z,26.60
2019-04-04T13:13:49.918Z,25.17
2019-04-04T13:16:21.265Z,29.10
2019-04-04T13:18:52.581Z,25.40
2019-04-04T13:21:23.915Z,27.80
2019-04-04T13:23:55.596Z,26.73
2019-04-04T13:26:27.452Z,28.87
2019-04-04T13:28:58.799Z,30.30
2019-04-04T13:31:30.453Z,30.67
2019-04-04T13:34:02.292Z,28.53
2019-04-04T13:36:36.586Z,30.63
2019-04-04T13:39:10.535Z,29.70
2019-04-04T13:41:42.502Z,29.83
2019-04-04T13:44:13.912Z,29.43
2019-04-04T13:46:45.828Z,29.57
2019-04-04T13:49:17.113Z,32.63
2019-04-04T13:51:48.498Z,31.30
2019-04-04T13:54:20.463Z,34.00
2019-04-04T13:56:52.229Z,34.20
2019-04-04T13:59:23.848Z,29.50
2019-04-04T14:01:55.765Z,33.10
2019-04-04T14:04:27.352Z,32.57
2019-04-04T14:07:02.444Z,28.57
2019-04-04T14:09:32.755Z,30.27
2019-04-04T14:12:04.162Z,35.47
2019-04-04T14:14:36.059Z,34.17
2019-04-04T14:17:08.283Z,37.80
2019-04-04T14:19:39.754Z,36.77
2019-04-04T14:22:11.090Z,34.10
2019-04-04T14:24:42.782Z,32.73
2019-04-04T14:27:14.198Z,35.17
2019-04-04T14:29:46.156Z,37.13
2019-04-04T14:32:17.210Z,38.77
2019-04-04T14:34:48.291Z,38.50
2019-04-04T14:37:19.646Z,39.10
2019-04-04T14:39:51.863Z,39.90
2019-04-04T14:42:23.452Z,38.10
2019-04-04T14:44:55.434Z,37.83
2019-04-04T14:47:28.169Z,41.63
2019-04-04T14:50:00.453Z,41.43
2019-04-04T14:52:31.957Z,39.80
2019-04-04T14:55:03.254Z,36.17
2019-04-04T14:57:34.904Z,34.63
2019-04-04T15:00:09.208Z,36.97
2019-04-04T15:02:40.766Z,36.43
2019-04-04T15:05:13.260Z,39.17
2019-04-04T15:07:45.118Z,37.10
2019-04-04T15:10:16.459Z,41.93
2019-04-04T15:12:48.343Z,38.73
2019-04-04T15:15:20.046Z,41.60
2019-04-04T15:17:51.341Z,40.47
2019-04-04T15:20:23.036Z,37.20
2019-04-04T15:22:54.166Z,37.17
2019-04-04T15:25:25.240Z,37.87
2019-04-04T15:27:56.568Z,35.60
2019-04-04T15:30:28.742Z,38.63
2019-04-04T15:33:02.562Z,38.03
2019-04-04T15:35:33.474Z,40.17
2019-04-04T15:38:05.695Z,38.73
2019-04-04T15:40:37.337Z,37.90
2019-04-04T15:43:09.374Z,39.83
2019-04-04T15:45:41.379Z,47.03
2019-04-04T15:48:12.699Z,43.97
2019-04-04T15:50:44.433Z,38.03
2019-04-04T15:53:16.105Z,36.30
2019-04-04T15:55:47.840Z,40.53
2019-04-04T15:58:19.433Z,38.83
2019-04-04T16:00:51.182Z,41.67
2019-04-04T16:03:22.747Z,36.60
2019-04-04T16:05:54.621Z,37.80
2019-04-04T16:08:26.223Z,37.33
2019-04-04T16:10:59.707Z,36.53
2019-04-04T16:13:31.228Z,38.07
2019-04-04T16:16:02.336Z,40.67
2019-04-04T16:18:33.897Z,38.80
2019-04-04T16:21:05.388Z,39.10
2019-04-04T16:23:37.465Z,39.23
2019-04-04T16:26:09.330Z,42.20
2019-04-04T16:28:40.346Z,39.93
2019-04-04T16:31:12.724Z,39.87
2019-04-04T16:33:44.323Z,40.73
2019-04-04T16:36:15.349Z,40.87
2019-04-04T16:38:46.632Z,40.57
2019-04-04T16:41:18.906Z,38.87
2019-04-04T16:43:50.530Z,40.03
2019-04-04T16:46:23.559Z,42.57
2019-04-04T16:48:55.186Z,43.47
2019-04-04T16:51:26.693Z,43.27
2019-04-04T16:53:58.265Z,41.53
2019-04-04T16:56:29.856Z,38.93
2019-04-04T16:59:01.502Z,41.33
2019-04-04T17:01:33.361Z,37.37
2019-04-04T17:04:04.921Z,37.20
2019-04-04T17:06:36.360Z,39.67
2019-04-04T17:09:09.306Z,40.33
2019-04-04T17:11:40.662Z,43.70
2019-04-04T17:14:11.720Z,43.35
2019-04-04T17:16:43.250Z,43.47
2019-04-04T17:19:14.583Z,41.97
2019-04-04T17:21:45.836Z,43.37
2019-04-04T17:24:17.839Z,44.23
2019-04-04T17:26:49.820Z,44.00
2019-04-04T17:29:21.452Z,43.17
2019-04-04T17:31:52.981Z,42.97
2019-04-04T17:34:25.065Z,43.83
2019-04-04T17:36:56.548Z,50.93
2019-04-04T17:39:28.262Z,47.47
2019-04-04T17:42:00.735Z,42.90
2019-04-04T17:44:32.954Z,42.70
2019-04-04T17:47:04.423Z,44.50
2019-04-04T17:49:36.937Z,45.00
2019-04-04T17:52:08.331Z,41.23
2019-04-04T17:54:40.650Z,40.77
2019-04-04T17:57:11.913Z,42.60
2019-04-04T17:59:43.236Z,44.30
2019-04-04T18:02:14.569Z,41.87
2019-04-04T18:04:48.467Z,46.60
2019-04-04T18:07:19.918Z,42.05
2019-04-04T18:09:52.473Z,44.87
2019-04-04T18:12:23.711Z,44.50
2019-04-04T18:14:56.705Z,44.67
2019-04-04T18:17:27.894Z,48.55
2019-04-04T18:19:59.289Z,52.88
2019-04-04T18:22:30.904Z,52.65
2019-04-04T18:25:02.678Z,52.15
2019-04-04T18:27:33.671Z,55.83
2019-04-04T18:30:07.574Z,55.40
2019-04-04T18:32:39.508Z,61.40
2019-04-04T18:35:11.796Z,61.83
2019-04-04T18:37:43.155Z,58.60
2019-04-04T18:40:14.657Z,64.53
2019-04-04T18:42:53.264Z,61.05
2019-04-04T18:45:20.140Z,62.55
2019-04-04T18:47:51.150Z,60.67
2019-04-04T18:50:23.010Z,65.65
2019-04-04T18:52:54.977Z,62.70
2019-04-04T18:55:27.285Z,69.35
2019-04-04T18:57:59.404Z,64.22
2019-04-04T19:00:31.761Z,68.65
2019-04-04T19:03:03.329Z,67.15
2019-04-04T19:05:34.666Z,62.73
2019-04-04T19:08:07.109Z,65.30
2019-04-04T19:10:39.232Z,67.55
2019-04-04T19:13:11.031Z,62.70
2019-04-04T19:15:42.319Z,65.32
2019-04-04T19:18:15.165Z,63.50
2019-04-04T19:20:54.078Z,67.72
2019-04-04T19:23:25.882Z,69.30
2019-04-04T19:25:57.811Z,63.97
2019-04-04T19:28:29.753Z,64.80
2019-04-04T19:31:01.691Z,67.27
2019-04-04T19:33:33.487Z,59.85
2019-04-04T19:36:05.437Z,62.90
2019-04-04T19:38:37.106Z,62.00
2019-04-04T19:41:08.849Z,63.00
2019-04-04T19:43:39.952Z,58.87
2019-04-04T19:46:11.672Z,57.45
2019-04-04T19:48:43.289Z,59.40
2019-04-04T19:51:14.568Z,55.52
2019-04-04T19:53:46.164Z,58.90
2019-04-04T19:56:17.738Z,60.25
2019-04-04T19:58:49.638Z,59.53
2019-04-04T20:01:21.556Z,60.98
2019-04-04T20:03:52.785Z,59.10
2019-04-04T20:06:23.803Z,55.92
2019-04-04T20:08:55.117Z,53.25
2019-04-04T20:11:26.863Z,55.20
2019-04-04T20:13:58.770Z,55.50
2019-04-04T20:16:30.295Z,54.67
2019-04-04T20:19:02.144Z,51.42
2019-04-04T20:21:33.722Z,59.55
2019-04-04T20:24:05.529Z,59.25
2019-04-04T20:26:37.182Z,54.90
2019-04-04T20:29:08.509Z,60.00
2019-04-04T20:31:40.014Z,57.05
2019-04-04T20:34:11.861Z,54.80
2019-04-04T20:36:43.644Z,59.48
2019-04-04T20:39:14.712Z,64.22
2019-04-04T20:41:45.718Z,61.70
2019-04-04T20:44:17.324Z,63.65
2019-04-04T20:46:49.438Z,70.85
2019-04-04T20:49:21.086Z,66.10
2019-04-04T20:51:52.739Z,69.22
2019-04-04T20:54:24.791Z,60.73
2019-04-04T20:56:56.536Z,66.45
2019-04-04T20:59:28.453Z,70.67
2019-04-04T21:02:00.032Z,71.10
2019-04-04T21:04:31.701Z,72.27
2019-04-04T21:07:03.067Z,75.92
2019-04-04T21:09:34.060Z,80.55
2019-04-04T21:12:05.705Z,74.72
2019-04-04T21:14:36.968Z,82.88
2019-04-04T21:17:08.258Z,73.90
2019-04-04T21:19:40.176Z,83.10
2019-04-04T21:22:11.773Z,84.90
2019-04-04T21:24:43.382Z,83.03
2019-04-04T21:27:14.675Z,83.58
2019-04-04T21:29:45.980Z,87.78
2019-04-04T21:32:17.347Z,93.70
2019-04-04T21:34:48.686Z,84.67
2019-04-04T21:37:19.972Z,94.03
2019-04-04T21:39:51.706Z,82.55
2019-04-04T21:42:22.734Z,83.80
2019-04-04T21:44:54.619Z,91.08
2019-04-04T21:47:26.232Z,85.77
2019-04-04T21:49:58.736Z,80.77
2019-04-04T21:52:30.720Z,82.88
2019-04-04T21:55:02.264Z,84.85
2019-04-04T21:57:34.051Z,81.95
2019-04-04T22:00:08.268Z,93.45
2019-04-04T22:02:41.278Z,93.78
2019-04-04T22:05:12.793Z,91.42
2019-04-04T22:07:44.095Z,82.85
2019-04-04T22:10:16.102Z,87.45
2019-04-04T22:12:48.006Z,88.30
2019-04-04T22:15:19.559Z,92.20
2019-04-04T22:17:51.337Z,89.20
2019-04-04T22:20:23.098Z,82.15
2019-04-04T22:22:54.767Z,85.57
2019-04-04T22:25:26.072Z,85.45
2019-04-04T22:27:57.665Z,85.25
2019-04-04T22:30:30.255Z,83.20
2019-04-04T22:33:02.043Z,75.33
2019-04-04T22:35:33.619Z,82.37
2019-04-04T22:38:05.513Z,73.95
2019-04-04T22:40:36.856Z,78.52
2019-04-04T22:43:08.558Z,81.65
2019-04-04T22:45:39.854Z,80.63
2019-04-04T22:48:11.108Z,87.12
2019-04-04T22:50:42.718Z,84.80
2019-04-04T22:53:14.010Z,85.50
2019-04-04T22:55:45.652Z,77.40
2019-04-04T22:58:27.628Z,85.77
2019-04-04T23:00:50.764Z,85.90
2019-04-04T23:03:23.360Z,83.90
2019-04-04T23:05:54.732Z,79.92
2019-04-04T23:08:26.396Z,81.00
2019-04-04T23:10:58.003Z,81.60
2019-04-04T23:13:29.649Z,85.00
2019-04-04T23:16:01.117Z,79.20
2019-04-04T23:18:34.287Z,75.30
2019-04-04T23:21:05.870Z,84.00
2019-04-04T23:23:37.765Z,86.40
2019-04-04T23:26:08.756Z,76.13
2019-04-04T23:28:39.768Z,74.95
2019-04-04T23:31:11.289Z,73.17
2019-04-04T23:33:42.407Z,79.57
2019-04-04T23:36:14.283Z,78.57
2019-04-04T23:38:45.543Z,76.73
2019-04-04T23:41:16.533Z,79.40
2019-04-04T23:43:49.537Z,70.80
2019-04-04T23:46:21.066Z,87.90
2019-04-04T23:48:52.351Z,77.03
2019-04-04T23:51:24.020Z,78.40
2019-04-04T23:53:56.345Z,71.10
2019-04-04T23:56:27.653Z,71.67
2019-04-04T23:58:59.241Z,76.80
